sensor_id;sensor_type;location;lat;lon;timestamp;pressure;altitude;pressure_sealevel;temperature;humidity
66273;BME280;58450;52.150;4.466;2023-02-21T00:01:13;102040.81;;;9.31;100.00
66273;BME280;58450;52.150;4.466;2023-02-21T00:04:01;102052.66;;;9.38;100.00
66273;BME280;58450;52.150;4.466;2023-02-21T00:06:45;102045.59;;;9.37;100.00
66273;BME280;58450;52.150;4.466;2023-02-21T00:09:31;102048.25;;;9.37;100.00
66273;BME280;58450;52.150;4.466;2023-02-21T00:12:16;102046.44;;;9.38;100.00
66273;BME280;58450;52.150;4.466;2023-02-21T00:15:01;102045.69;;;9.18;100.00
66273;BME280;58450;52.150;4.466;2023-02-21T00:17:46;102050.91;;;9.19;100.00
66273;BME280;58450;52.150;4.466;2023-02-21T00:20:32;102044.72;;;9.09;100.00
66273;BME280;58450;52.150;4.466;2023-02-21T00:23:18;102046.00;;;9.14;100.00
66273;BME280;58450;52.150;4.466;2023-02-21T00:26:03;102052.75;;;9.19;100.00
66273;BME280;58450;52.150;4.466;2023-02-21T00:28:48;102047.38;;;9.19;100.00
66273;BME280;58450;52.150;4.466;2023-02-21T00:31:34;102042.41;;;9.24;100.00
66273;BME280;58450;52.150;4.466;2023-02-21T00:34:19;102053.59;;;9.19;100.00
66273;BME280;58450;52.150;4.466;2023-02-21T00:37:05;102039.75;;;9.14;100.00
66273;BME280;58450;52.150;4.466;2023-02-21T00:39:50;102039.81;;;9.04;100.00
66273;BME280;58450;52.150;4.466;2023-02-21T00:42:36;102045.88;;;9.06;100.00
66273;BME280;58450;52.150;4.466;2023-02-21T00:45:21;102055.44;;;9.19;100.00
66273;BME280;58450;52.150;4.466;2023-02-21T00:48:06;102037.34;;;9.21;100.00
66273;BME280;58450;52.150;4.466;2023-02-21T00:50:51;102032.47;;;8.96;100.00
66273;BME280;58450;52.150;4.466;2023-02-21T00:53:37;102039.56;;;9.25;100.00
66273;BME280;58450;52.150;4.466;2023-02-21T00:56:22;102035.69;;;9.10;100.00
66273;BME280;58450;52.150;4.466;2023-02-21T00:59:08;102037.25;;;9.12;100.00
66273;BME280;58450;52.150;4.466;2023-02-21T01:01:53;102044.47;;;9.30;100.00
66273;BME280;58450;52.150;4.466;2023-02-21T01:04:38;102041.22;;;8.98;100.00
66273;BME280;58450;52.150;4.466;2023-02-21T01:07:23;102033.19;;;8.98;100.00
66273;BME280;58450;52.150;4.466;2023-02-21T01:10:10;102038.34;;;9.20;100.00
66273;BME280;58450;52.150;4.466;2023-02-21T01:12:55;102027.34;;;9.41;100.00
66273;BME280;58450;52.150;4.466;2023-02-21T01:15:40;102024.31;;;9.26;100.00
66273;BME280;58450;52.150;4.466;2023-02-21T01:18:25;102016.69;;;9.49;100.00
66273;BME280;58450;52.150;4.466;2023-02-21T01:21:11;102023.94;;;9.39;100.00
66273;BME280;58450;52.150;4.466;2023-02-21T01:23:56;102027.09;;;8.96;100.00
66273;BME280;58450;52.150;4.466;2023-02-21T01:26:43;102015.66;;;9.04;100.00
66273;BME280;58450;52.150;4.466;2023-02-21T01:29:28;102025.22;;;9.07;100.00
66273;BME280;58450;52.150;4.466;2023-02-21T01:32:13;102025.00;;;9.00;100.00
66273;BME280;58450;52.150;4.466;2023-02-21T01:34:58;102016.06;;;8.99;100.00
66273;BME280;58450;52.150;4.466;2023-02-21T01:37:44;102011.63;;;9.46;100.00
66273;BME280;58450;52.150;4.466;2023-02-21T01:40:29;102010.84;;;9.54;100.00
66273;BME280;58450;52.150;4.466;2023-02-21T01:43:17;102014.81;;;9.50;100.00
66273;BME280;58450;52.150;4.466;2023-02-21T01:46:05;102016.53;;;9.51;100.00
66273;BME280;58450;52.150;4.466;2023-02-21T01:48:54;102012.63;;;9.63;100.00
66273;BME280;58450;52.150;4.466;2023-02-21T01:51:41;102014.00;;;9.49;100.00
66273;BME280;58450;52.150;4.466;2023-02-21T01:54:30;102025.84;;;9.56;100.00
66273;BME280;58450;52.150;4.466;2023-02-21T01:57:19;102011.63;;;9.82;100.00
66273;BME280;58450;52.150;4.466;2023-02-21T02:00:09;102014.56;;;9.71;100.00
66273;BME280;58450;52.150;4.466;2023-02-21T02:02:58;102009.09;;;9.16;100.00
66273;BME280;58450;52.150;4.466;2023-02-21T02:05:48;102013.72;;;9.42;100.00
66273;BME280;58450;52.150;4.466;2023-02-21T02:08:35;102012.09;;;9.59;100.00
66273;BME280;58450;52.150;4.466;2023-02-21T02:11:35;102008.31;;;9.70;100.00
66273;BME280;58450;52.150;4.466;2023-02-21T02:15:04;101999.50;;;9.32;100.00
66273;BME280;58450;52.150;4.466;2023-02-21T02:17:53;102001.56;;;9.48;100.00
66273;BME280;58450;52.150;4.466;2023-02-21T02:21:01;102007.56;;;9.60;100.00
66273;BME280;58450;52.150;4.466;2023-02-21T02:24:21;102000.50;;;9.31;100.00
66273;BME280;58450;52.150;4.466;2023-02-21T02:27:32;101988.03;;;9.58;100.00
66273;BME280;58450;52.150;4.466;2023-02-21T02:34:08;101989.41;;;9.26;100.00
66273;BME280;58450;52.150;4.466;2023-02-21T02:37:09;101982.66;;;9.40;100.00
66273;BME280;58450;52.150;4.466;2023-02-21T02:39:47;101996.09;;;9.40;100.00
66273;BME280;58450;52.150;4.466;2023-02-21T02:42:34;101981.78;;;9.39;100.00
66273;BME280;58450;52.150;4.466;2023-02-21T02:45:21;101977.66;;;9.27;100.00
66273;BME280;58450;52.150;4.466;2023-02-21T02:48:00;101988.53;;;9.25;100.00
66273;BME280;58450;52.150;4.466;2023-02-21T02:50:34;101976.78;;;9.26;100.00
66273;BME280;58450;52.150;4.466;2023-02-21T02:53:02;101977.78;;;8.97;100.00
66273;BME280;58450;52.150;4.466;2023-02-21T02:55:36;101985.34;;;9.12;100.00
66273;BME280;58450;52.150;4.466;2023-02-21T02:58:10;101986.94;;;9.05;100.00
66273;BME280;58450;52.150;4.466;2023-02-21T03:00:40;101993.19;;;8.95;100.00
66273;BME280;58450;52.150;4.466;2023-02-21T03:03:38;101995.34;;;8.92;100.00
66273;BME280;58450;52.150;4.466;2023-02-21T03:06:25;101987.59;;;8.89;100.00
66273;BME280;58450;52.150;4.466;2023-02-21T03:09:08;101984.34;;;8.85;100.00
66273;BME280;58450;52.150;4.466;2023-02-21T03:11:48;101975.41;;;8.94;100.00
66273;BME280;58450;52.150;4.466;2023-02-21T03:14:26;101979.47;;;8.98;100.00
66273;BME280;58450;52.150;4.466;2023-02-21T03:17:05;101970.53;;;9.08;100.00
66273;BME280;58450;52.150;4.466;2023-02-21T03:19:39;101978.34;;;9.01;100.00
66273;BME280;58450;52.150;4.466;2023-02-21T03:22:12;101973.75;;;8.83;100.00
66273;BME280;58450;52.150;4.466;2023-02-21T03:24:44;101987.63;;;9.07;100.00
66273;BME280;58450;52.150;4.466;2023-02-21T03:27:16;101974.28;;;8.97;100.00
66273;BME280;58450;52.150;4.466;2023-02-21T03:29:47;101978.56;;;9.18;100.00
66273;BME280;58450;52.150;4.466;2023-02-21T03:32:19;101971.75;;;9.41;100.00
66273;BME280;58450;52.150;4.466;2023-02-21T03:34:50;101978.66;;;9.26;100.00
66273;BME280;58450;52.150;4.466;2023-02-21T03:37:21;101961.75;;;9.15;100.00
66273;BME280;58450;52.150;4.466;2023-02-21T03:39:57;101966.22;;;8.97;100.00
66273;BME280;58450;52.150;4.466;2023-02-21T03:42:24;101973.50;;;9.05;100.00
66273;BME280;58450;52.150;4.466;2023-02-21T03:44:52;101975.34;;;9.32;100.00
66273;BME280;58450;52.150;4.466;2023-02-21T03:47:19;101967.44;;;9.30;100.00
66273;BME280;58450;52.150;4.466;2023-02-21T03:49:47;101962.38;;;9.27;100.00
66273;BME280;58450;52.150;4.466;2023-02-21T03:52:15;101967.16;;;9.52;100.00
66273;BME280;58450;52.150;4.466;2023-02-21T03:54:44;101957.47;;;9.59;100.00
66273;BME280;58450;52.150;4.466;2023-02-21T03:57:11;101966.16;;;9.35;100.00
66273;BME280;58450;52.150;4.466;2023-02-21T03:59:39;101961.56;;;9.45;100.00
66273;BME280;58450;52.150;4.466;2023-02-21T04:02:06;101968.53;;;9.10;100.00
66273;BME280;58450;52.150;4.466;2023-02-21T04:04:34;101961.75;;;9.15;100.00
66273;BME280;58450;52.150;4.466;2023-02-21T04:07:01;101962.44;;;9.18;100.00
66273;BME280;58450;52.150;4.466;2023-02-21T04:09:29;101951.25;;;9.40;100.00
66273;BME280;58450;52.150;4.466;2023-02-21T04:11:58;101958.25;;;9.05;100.00
66273;BME280;58450;52.150;4.466;2023-02-21T04:14:25;101968.94;;;9.15;100.00
66273;BME280;58450;52.150;4.466;2023-02-21T04:16:52;101955.69;;;9.31;100.00
66273;BME280;58450;52.150;4.466;2023-02-21T04:19:20;101945.47;;;9.35;100.00
66273;BME280;58450;52.150;4.466;2023-02-21T04:21:47;101959.25;;;9.04;100.00
66273;BME280;58450;52.150;4.466;2023-02-21T04:24:15;101966.25;;;9.61;100.00
66273;BME280;58450;52.150;4.466;2023-02-21T04:26:43;101960.78;;;9.35;100.00
66273;BME280;58450;52.150;4.466;2023-02-21T04:29:12;101957.19;;;9.62;100.00
66273;BME280;58450;52.150;4.466;2023-02-21T04:31:39;101963.47;;;9.35;100.00
66273;BME280;58450;52.150;4.466;2023-02-21T04:34:07;101950.41;;;9.40;100.00
66273;BME280;58450;52.150;4.466;2023-02-21T04:36:34;101959.28;;;9.22;100.00
66273;BME280;58450;52.150;4.466;2023-02-21T04:39:03;101960.34;;;9.11;100.00
66273;BME280;58450;52.150;4.466;2023-02-21T04:41:31;101954.91;;;9.21;100.00
66273;BME280;58450;52.150;4.466;2023-02-21T04:44:00;101957.69;;;9.01;100.00
66273;BME280;58450;52.150;4.466;2023-02-21T04:46:29;101956.38;;;9.15;100.00
66273;BME280;58450;52.150;4.466;2023-02-21T04:48:56;101958.09;;;9.53;100.00
66273;BME280;58450;52.150;4.466;2023-02-21T04:51:24;101962.63;;;9.52;100.00
66273;BME280;58450;52.150;4.466;2023-02-21T04:53:53;101957.66;;;9.57;100.00
66273;BME280;58450;52.150;4.466;2023-02-21T04:56:22;101961.06;;;9.31;100.00
66273;BME280;58450;52.150;4.466;2023-02-21T04:58:52;101960.22;;;9.31;100.00
66273;BME280;58450;52.150;4.466;2023-02-21T05:01:20;101956.41;;;9.34;100.00
66273;BME280;58450;52.150;4.466;2023-02-21T05:03:49;101952.28;;;9.57;100.00
66273;BME280;58450;52.150;4.466;2023-02-21T05:06:18;101952.88;;;9.51;100.00
66273;BME280;58450;52.150;4.466;2023-02-21T05:08:46;101959.25;;;9.50;100.00
66273;BME280;58450;52.150;4.466;2023-02-21T05:11:14;101940.88;;;9.45;100.00
66273;BME280;58450;52.150;4.466;2023-02-21T05:13:42;101961.28;;;9.38;100.00
66273;BME280;58450;52.150;4.466;2023-02-21T05:16:10;101946.97;;;9.48;100.00
66273;BME280;58450;52.150;4.466;2023-02-21T05:18:40;101958.69;;;9.46;100.00
66273;BME280;58450;52.150;4.466;2023-02-21T05:21:09;101967.22;;;9.42;100.00
66273;BME280;58450;52.150;4.466;2023-02-21T05:23:38;101963.72;;;9.13;100.00
66273;BME280;58450;52.150;4.466;2023-02-21T05:26:09;101953.28;;;9.10;100.00
66273;BME280;58450;52.150;4.466;2023-02-21T05:28:39;101959.78;;;9.36;100.00
66273;BME280;58450;52.150;4.466;2023-02-21T05:31:07;101949.94;;;9.26;100.00
66273;BME280;58450;52.150;4.466;2023-02-21T05:33:35;101950.16;;;9.33;100.00
66273;BME280;58450;52.150;4.466;2023-02-21T05:36:03;101947.47;;;9.33;100.00
66273;BME280;58450;52.150;4.466;2023-02-21T05:38:32;101955.38;;;9.16;100.00
66273;BME280;58450;52.150;4.466;2023-02-21T05:40:59;101959.75;;;9.18;100.00
66273;BME280;58450;52.150;4.466;2023-02-21T05:43:27;101952.28;;;9.11;100.00
66273;BME280;58450;52.150;4.466;2023-02-21T05:45:58;101953.50;;;8.99;100.00
66273;BME280;58450;52.150;4.466;2023-02-21T05:48:26;101952.81;;;9.43;100.00
66273;BME280;58450;52.150;4.466;2023-02-21T05:50:53;101942.88;;;8.97;100.00
66273;BME280;58450;52.150;4.466;2023-02-21T05:53:20;101938.97;;;8.92;100.00
66273;BME280;58450;52.150;4.466;2023-02-21T05:55:49;101939.69;;;8.84;100.00
66273;BME280;58450;52.150;4.466;2023-02-21T05:58:17;101953.19;;;9.02;100.00
66273;BME280;58450;52.150;4.466;2023-02-21T06:00:44;101946.81;;;9.03;100.00
66273;BME280;58450;52.150;4.466;2023-02-21T06:03:12;101939.66;;;9.22;100.00
66273;BME280;58450;52.150;4.466;2023-02-21T06:05:40;101940.72;;;9.29;100.00
66273;BME280;58450;52.150;4.466;2023-02-21T06:08:08;101940.50;;;9.22;100.00
66273;BME280;58450;52.150;4.466;2023-02-21T06:10:35;101950.75;;;9.09;100.00
66273;BME280;58450;52.150;4.466;2023-02-21T06:13:04;101947.34;;;9.53;100.00
66273;BME280;58450;52.150;4.466;2023-02-21T06:15:32;101948.34;;;9.34;100.00
66273;BME280;58450;52.150;4.466;2023-02-21T06:17:59;101942.44;;;9.66;100.00
66273;BME280;58450;52.150;4.466;2023-02-21T06:20:27;101943.25;;;9.30;100.00
66273;BME280;58450;52.150;4.466;2023-02-21T06:22:54;101941.53;;;9.57;100.00
66273;BME280;58450;52.150;4.466;2023-02-21T06:25:22;101948.53;;;9.22;100.00
66273;BME280;58450;52.150;4.466;2023-02-21T06:27:50;101945.34;;;8.91;100.00
66273;BME280;58450;52.150;4.466;2023-02-21T06:30:18;101958.38;;;9.13;100.00
66273;BME280;58450;52.150;4.466;2023-02-21T06:32:46;101955.91;;;8.92;100.00
66273;BME280;58450;52.150;4.466;2023-02-21T06:35:13;101962.84;;;8.57;100.00
66273;BME280;58450;52.150;4.466;2023-02-21T06:37:41;101965.34;;;9.24;100.00
66273;BME280;58450;52.150;4.466;2023-02-21T06:40:09;101958.16;;;8.97;100.00
66273;BME280;58450;52.150;4.466;2023-02-21T06:42:37;101956.50;;;8.58;100.00
66273;BME280;58450;52.150;4.466;2023-02-21T06:45:05;101952.75;;;8.79;100.00
66273;BME280;58450;52.150;4.466;2023-02-21T06:47:34;101954.44;;;8.80;100.00
66273;BME280;58450;52.150;4.466;2023-02-21T06:50:03;101959.19;;;8.86;100.00
66273;BME280;58450;52.150;4.466;2023-02-21T06:52:31;101964.84;;;9.57;100.00
66273;BME280;58450;52.150;4.466;2023-02-21T06:54:58;101971.06;;;9.39;100.00
66273;BME280;58450;52.150;4.466;2023-02-21T06:57:26;101967.94;;;9.44;100.00
66273;BME280;58450;52.150;4.466;2023-02-21T06:59:53;101956.66;;;9.58;100.00
66273;BME280;58450;52.150;4.466;2023-02-21T07:02:21;101962.00;;;9.40;100.00
66273;BME280;58450;52.150;4.466;2023-02-21T07:04:50;101971.41;;;9.54;100.00
66273;BME280;58450;52.150;4.466;2023-02-21T07:07:17;101967.34;;;9.22;100.00
66273;BME280;58450;52.150;4.466;2023-02-21T07:09:45;101974.00;;;9.46;100.00
66273;BME280;58450;52.150;4.466;2023-02-21T07:12:12;101965.16;;;9.54;100.00
66273;BME280;58450;52.150;4.466;2023-02-21T07:14:40;101964.19;;;8.71;100.00
66273;BME280;58450;52.150;4.466;2023-02-21T07:17:07;101967.88;;;8.70;100.00
66273;BME280;58450;52.150;4.466;2023-02-21T07:19:35;101968.78;;;8.89;100.00
66273;BME280;58450;52.150;4.466;2023-02-21T07:22:03;101968.19;;;9.69;100.00
66273;BME280;58450;52.150;4.466;2023-02-21T07:24:31;101959.47;;;9.93;100.00
66273;BME280;58450;52.150;4.466;2023-02-21T07:26:59;101953.75;;;9.70;100.00
66273;BME280;58450;52.150;4.466;2023-02-21T07:29:27;101951.56;;;9.73;100.00
66273;BME280;58450;52.150;4.466;2023-02-21T07:31:54;101950.97;;;9.80;100.00
66273;BME280;58450;52.150;4.466;2023-02-21T07:34:22;101959.13;;;9.70;100.00
66273;BME280;58450;52.150;4.466;2023-02-21T07:36:50;101965.63;;;10.03;100.00
66273;BME280;58450;52.150;4.466;2023-02-21T07:39:19;101965.25;;;9.62;100.00
66273;BME280;58450;52.150;4.466;2023-02-21T07:41:46;101967.09;;;9.80;100.00
66273;BME280;58450;52.150;4.466;2023-02-21T07:44:14;101962.16;;;9.93;100.00
66273;BME280;58450;52.150;4.466;2023-02-21T07:46:41;101957.94;;;10.09;100.00
66273;BME280;58450;52.150;4.466;2023-02-21T07:49:11;101962.75;;;10.05;100.00
66273;BME280;58450;52.150;4.466;2023-02-21T07:51:38;101971.91;;;10.12;100.00
66273;BME280;58450;52.150;4.466;2023-02-21T07:54:06;101972.44;;;9.98;100.00
66273;BME280;58450;52.150;4.466;2023-02-21T07:56:35;101969.91;;;10.14;100.00
66273;BME280;58450;52.150;4.466;2023-02-21T07:59:02;101967.84;;;9.90;100.00
66273;BME280;58450;52.150;4.466;2023-02-21T08:01:30;101976.22;;;9.87;100.00
66273;BME280;58450;52.150;4.466;2023-02-21T08:03:57;101979.47;;;10.17;100.00
66273;BME280;58450;52.150;4.466;2023-02-21T08:06:25;101985.34;;;10.12;100.00
66273;BME280;58450;52.150;4.466;2023-02-21T08:08:52;101984.50;;;10.12;100.00
66273;BME280;58450;52.150;4.466;2023-02-21T08:11:20;101981.59;;;10.05;100.00
66273;BME280;58450;52.150;4.466;2023-02-21T08:13:49;101977.69;;;9.99;100.00
66273;BME280;58450;52.150;4.466;2023-02-21T08:16:17;101978.69;;;9.80;100.00
66273;BME280;58450;52.150;4.466;2023-02-21T08:18:46;101973.06;;;10.10;100.00
66273;BME280;58450;52.150;4.466;2023-02-21T08:21:15;101973.75;;;10.12;100.00
66273;BME280;58450;52.150;4.466;2023-02-21T08:23:43;101976.28;;;10.13;100.00
66273;BME280;58450;52.150;4.466;2023-02-21T08:26:10;101977.69;;;9.99;100.00
66273;BME280;58450;52.150;4.466;2023-02-21T08:28:38;101980.31;;;9.91;100.00
66273;BME280;58450;52.150;4.466;2023-02-21T08:31:07;101976.91;;;9.89;100.00
66273;BME280;58450;52.150;4.466;2023-02-21T08:33:34;101969.63;;;9.63;100.00
66273;BME280;58450;52.150;4.466;2023-02-21T08:36:02;101978.06;;;9.68;100.00
66273;BME280;58450;52.150;4.466;2023-02-21T08:38:30;101987.69;;;9.89;100.00
66273;BME280;58450;52.150;4.466;2023-02-21T08:40:58;101976.06;;;9.88;100.00
66273;BME280;58450;52.150;4.466;2023-02-21T08:43:25;101978.84;;;9.79;100.00
66273;BME280;58450;52.150;4.466;2023-02-21T08:45:53;101974.06;;;9.90;100.00
66273;BME280;58450;52.150;4.466;2023-02-21T08:48:22;101974.94;;;9.91;100.00
66273;BME280;58450;52.150;4.466;2023-02-21T08:50:50;101972.94;;;9.93;100.00
66273;BME280;58450;52.150;4.466;2023-02-21T08:53:18;101963.22;;;9.82;100.00
66273;BME280;58450;52.150;4.466;2023-02-21T08:55:46;101976.22;;;9.87;100.00
66273;BME280;58450;52.150;4.466;2023-02-21T08:58:13;101971.47;;;9.63;100.00
66273;BME280;58450;52.150;4.466;2023-02-21T09:00:41;101965.09;;;9.82;100.00
66273;BME280;58450;52.150;4.466;2023-02-21T09:03:08;101974.06;;;9.90;100.00
66273;BME280;58450;52.150;4.466;2023-02-21T09:05:37;101971.94;;;9.94;100.00
66273;BME280;58450;52.150;4.466;2023-02-21T09:08:05;101972.47;;;9.61;100.00
66273;BME280;58450;52.150;4.466;2023-02-21T09:10:35;101967.47;;;9.85;100.00
66273;BME280;58450;52.150;4.466;2023-02-21T09:13:03;101966.09;;;9.63;100.00
66273;BME280;58450;52.150;4.466;2023-02-21T09:15:31;101968.25;;;9.95;100.00
66273;BME280;58450;52.150;4.466;2023-02-21T09:17:58;101965.44;;;10.05;100.00
66273;BME280;58450;52.150;4.466;2023-02-21T09:20:26;101967.63;;;9.83;100.00
66273;BME280;58450;52.150;4.466;2023-02-21T09:22:54;101959.31;;;10.13;100.00
66273;BME280;58450;52.150;4.466;2023-02-21T09:25:23;101949.63;;;10.28;100.00
66273;BME280;58450;52.150;4.466;2023-02-21T09:27:52;101965.94;;;10.00;100.00
66273;BME280;58450;52.150;4.466;2023-02-21T09:30:21;101960.13;;;10.13;100.00
66273;BME280;58450;52.150;4.466;2023-02-21T09:32:51;101956.03;;;9.83;100.00
66273;BME280;58450;52.150;4.466;2023-02-21T09:35:19;101964.00;;;10.11;100.00
66273;BME280;58450;52.150;4.466;2023-02-21T09:37:46;101948.78;;;10.01;100.00
66273;BME280;58450;52.150;4.466;2023-02-21T09:40:21;101950.56;;;10.19;100.00
66273;BME280;58450;52.150;4.466;2023-02-21T09:42:59;101950.81;;;10.26;100.00
66273;BME280;58450;52.150;4.466;2023-02-21T09:45:31;101949.41;;;10.40;100.00
66273;BME280;58450;52.150;4.466;2023-02-21T09:48:04;101943.75;;;10.25;100.00
66273;BME280;58450;52.150;4.466;2023-02-21T09:50:40;101942.88;;;10.24;100.00
66273;BME280;58450;52.150;4.466;2023-02-21T09:53:14;101943.31;;;10.11;100.00
66273;BME280;58450;52.150;4.466;2023-02-21T09:55:47;101947.69;;;10.12;100.00
66273;BME280;58450;52.150;4.466;2023-02-21T09:58:19;101941.88;;;10.25;100.00
66273;BME280;58450;52.150;4.466;2023-02-21T10:00:47;101948.84;;;10.10;100.00
66273;BME280;58450;52.150;4.466;2023-02-21T10:03:29;101936.94;;;10.12;100.00
66273;BME280;58450;52.150;4.466;2023-02-21T10:06:11;101944.13;;;10.30;100.00
66273;BME280;58450;52.150;4.466;2023-02-21T10:08:53;101945.72;;;10.41;100.00
66273;BME280;58450;52.150;4.466;2023-02-21T10:11:39;101947.94;;;10.27;100.00
66273;BME280;58450;52.150;4.466;2023-02-21T10:14:22;101936.56;;;10.07;100.00
66273;BME280;58450;52.150;4.466;2023-02-21T10:17:00;101936.94;;;10.12;100.00
66273;BME280;58450;52.150;4.466;2023-02-21T10:19:39;101937.25;;;10.35;100.00
66273;BME280;58450;52.150;4.466;2023-02-21T10:22:13;101940.69;;;10.19;100.00
66273;BME280;58450;52.150;4.466;2023-02-21T10:24:47;101937.50;;;10.42;100.00
66273;BME280;58450;52.150;4.466;2023-02-21T10:27:19;101936.53;;;10.52;100.00
66273;BME280;58450;52.150;4.466;2023-02-21T10:29:50;101934.66;;;10.26;100.00
66273;BME280;58450;52.150;4.466;2023-02-21T10:32:21;101944.16;;;10.38;100.00
66273;BME280;58450;52.150;4.466;2023-02-21T10:34:49;101935.63;;;10.43;100.00
66273;BME280;58450;52.150;4.466;2023-02-21T10:37:28;101929.47;;;10.32;100.00
66273;BME280;58450;52.150;4.466;2023-02-21T10:40:12;101937.63;;;10.14;100.00
66273;BME280;58450;52.150;4.466;2023-02-21T10:42:55;101928.34;;;10.35;100.00
66273;BME280;58450;52.150;4.466;2023-02-21T10:45:34;101935.13;;;10.21;100.00
66273;BME280;58450;52.150;4.466;2023-02-21T10:48:06;101932.78;;;10.00;100.00
66273;BME280;58450;52.150;4.466;2023-02-21T10:50:42;101924.59;;;10.28;100.00
66273;BME280;58450;52.150;4.466;2023-02-21T10:53:26;101920.22;;;10.53;100.00
66273;BME280;58450;52.150;4.466;2023-02-21T10:56:19;101927.53;;;10.16;100.00
66273;BME280;58450;52.150;4.466;2023-02-21T10:58:54;101928.47;;;10.07;100.00
66273;BME280;58450;52.150;4.466;2023-02-21T11:01:34;101920.84;;;9.58;100.00
66273;BME280;58450;52.150;4.466;2023-02-21T11:04:05;101930.28;;;9.98;100.00
66273;BME280;58450;52.150;4.466;2023-02-21T11:06:48;101927.78;;;10.05;100.00
66273;BME280;58450;52.150;4.466;2023-02-21T11:09:28;101938.25;;;10.08;100.00
66273;BME280;58450;52.150;4.466;2023-02-21T11:12:04;101927.28;;;10.01;100.00
66273;BME280;58450;52.150;4.466;2023-02-21T11:15:03;101927.66;;;9.88;100.00
66273;BME280;58450;52.150;4.466;2023-02-21T11:17:43;101929.47;;;10.06;100.00
66273;BME280;58450;52.150;4.466;2023-02-21T11:20:17;101922.66;;;10.12;100.00
66273;BME280;58450;52.150;4.466;2023-02-21T11:22:48;101928.41;;;9.99;100.00
66273;BME280;58450;52.150;4.466;2023-02-21T11:25:23;101922.47;;;9.87;100.00
66273;BME280;58450;52.150;4.466;2023-02-21T11:28:05;101917.84;;;9.97;100.00
66273;BME280;58450;52.150;4.466;2023-02-21T11:30:49;101915.28;;;9.96;100.00
66273;BME280;58450;52.150;4.466;2023-02-21T11:33:35;101913.53;;;10.04;100.00
66273;BME280;58450;52.150;4.466;2023-02-21T11:36:10;101905.00;;;9.91;100.00
66273;BME280;58450;52.150;4.466;2023-02-21T11:38:40;101903.72;;;9.77;100.00
66273;BME280;58450;52.150;4.466;2023-02-21T11:41:17;101908.13;;;10.04;100.00
66273;BME280;58450;52.150;4.466;2023-02-21T11:43:49;101897.72;;;9.83;100.00
66273;BME280;58450;52.150;4.466;2023-02-21T11:46:26;101915.31;;;9.78;100.00
66273;BME280;58450;52.150;4.466;2023-02-21T11:49:04;101901.97;;;9.68;100.00
66273;BME280;58450;52.150;4.466;2023-02-21T11:51:45;101891.78;;;9.98;100.00
66273;BME280;58450;52.150;4.466;2023-02-21T11:54:15;101900.84;;;9.97;100.00
66273;BME280;58450;52.150;4.466;2023-02-21T11:56:56;101895.69;;;10.03;100.00
66273;BME280;58450;52.150;4.466;2023-02-21T11:59:35;101892.03;;;9.86;100.00
66273;BME280;58450;52.150;4.466;2023-02-21T12:05:31;101892.03;;;9.86;100.00
66273;BME280;58450;52.150;4.466;2023-02-21T12:08:22;101884.88;;;9.95;100.00
66273;BME280;58450;52.150;4.466;2023-02-21T12:11:11;101886.03;;;10.19;100.00
66273;BME280;58450;52.150;4.466;2023-02-21T12:13:55;101880.69;;;10.01;100.00
66273;BME280;58450;52.150;4.466;2023-02-21T12:16:54;101890.81;;;9.81;100.00
66273;BME280;58450;52.150;4.466;2023-02-21T12:19:45;101886.53;;;9.52;100.00
66273;BME280;58450;52.150;4.466;2023-02-21T12:22:39;101885.56;;;9.97;100.00
66273;BME280;58450;52.150;4.466;2023-02-21T12:25:28;101882.41;;;9.57;100.00
66273;BME280;58450;52.150;4.466;2023-02-21T12:28:04;101881.25;;;9.42;100.00
66273;BME280;58450;52.150;4.466;2023-02-21T12:30:54;101874.13;;;9.32;100.00
66273;BME280;58450;52.150;4.466;2023-02-21T12:33:43;101875.63;;;9.35;100.00
66273;BME280;58450;52.150;4.466;2023-02-21T12:36:27;101868.72;;;9.69;100.00
66273;BME280;58450;52.150;4.466;2023-02-21T12:39:13;101875.25;;;9.30;100.00
66273;BME280;58450;52.150;4.466;2023-02-21T12:42:24;101864.75;;;9.19;100.00
66273;BME280;58450;52.150;4.466;2023-02-21T12:45:14;101867.88;;;9.32;100.00
66273;BME280;58450;52.150;4.466;2023-02-21T12:47:59;101864.28;;;9.41;100.00
66273;BME280;58450;52.150;4.466;2023-02-21T12:50:35;101866.97;;;9.59;100.00
66273;BME280;58450;52.150;4.466;2023-02-21T12:53:11;101855.56;;;9.84;100.00
66273;BME280;58450;52.150;4.466;2023-02-21T12:55:44;101860.44;;;9.88;100.00
66273;BME280;58450;52.150;4.466;2023-02-21T12:58:19;101855.06;;;9.62;100.00
66273;BME280;58450;52.150;4.466;2023-02-21T13:00:55;101855.53;;;9.39;100.00
66273;BME280;58450;52.150;4.466;2023-02-21T13:03:38;101860.06;;;9.39;100.00
66273;BME280;58450;52.150;4.466;2023-02-21T13:06:17;101853.75;;;9.66;100.00
66273;BME280;58450;52.150;4.466;2023-02-21T13:09:01;101854.31;;;9.78;100.00
66273;BME280;58450;52.150;4.466;2023-02-21T13:11:41;101856.81;;;9.71;100.00
66273;BME280;58450;52.150;4.466;2023-02-21T13:14:19;101848.44;;;9.74;100.00
66273;BME280;58450;52.150;4.466;2023-02-21T13:16:52;101849.16;;;9.40;100.00
66273;BME280;58450;52.150;4.466;2023-02-21T13:19:21;101846.78;;;9.55;100.00
66273;BME280;58450;52.150;4.466;2023-02-21T13:22:04;101845.13;;;9.81;100.00
66273;BME280;58450;52.150;4.466;2023-02-21T13:25:18;101847.69;;;9.64;100.00
66273;BME280;58450;52.150;4.466;2023-02-21T13:27:55;101842.97;;;9.22;100.00
66273;BME280;58450;52.150;4.466;2023-02-21T13:30:37;101843.88;;;9.30;100.00
66273;BME280;58450;52.150;4.466;2023-02-21T13:33:22;101834.31;;;9.72;100.00
66273;BME280;58450;52.150;4.466;2023-02-21T13:35:55;101836.84;;;9.56;100.00
66273;BME280;58450;52.150;4.466;2023-02-21T13:38:27;101835.28;;;9.45;100.00